createdAt,value
2023-03-06T00:00:52.488Z,-4.90
2023-03-06T00:03:21.724Z,-4.90
2023-03-06T00:05:50.937Z,-4.90
2023-03-06T00:08:19.960Z,-4.91
2023-03-06T00:10:48.852Z,-4.89
2023-03-06T00:13:19.457Z,-4.90
2023-03-06T00:15:48.955Z,-4.90
2023-03-06T00:18:18.185Z,-4.91
2023-03-06T00:20:47.856Z,-4.90
2023-03-06T00:23:16.671Z,-4.89
2023-03-06T00:25:45.707Z,-4.89
2023-03-06T00:28:15.272Z,-4.89
2023-03-06T00:30:47.029Z,-4.89
2023-03-06T00:33:16.072Z,-4.89
2023-03-06T00:35:45.185Z,-4.89
2023-03-06T00:38:14.142Z,-4.87
2023-03-06T00:40:44.375Z,-4.87
2023-03-06T00:43:13.353Z,-4.87
2023-03-06T00:45:44.806Z,-4.86
2023-03-06T00:48:15.707Z,-4.87
2023-03-06T00:50:45.631Z,-4.87
2023-03-06T00:53:14.483Z,-4.86
2023-03-06T00:55:46.003Z,-4.85
2023-03-06T00:58:14.857Z,-4.85
2023-03-06T01:00:44.771Z,-4.84
2023-03-06T01:03:16.300Z,-4.86
2023-03-06T01:05:45.393Z,-4.86
2023-03-06T01:08:14.171Z,-4.85
2023-03-06T01:10:48.869Z,-4.85
2023-03-06T01:13:18.650Z,-4.86
2023-03-06T01:15:47.854Z,-4.87
2023-03-06T01:18:16.736Z,-4.89
2023-03-06T01:20:45.772Z,-4.90
2023-03-06T01:23:15.507Z,-4.90
2023-03-06T01:25:44.739Z,-4.91
2023-03-06T01:28:13.492Z,-4.91
2023-03-06T01:30:43.610Z,-4.92
2023-03-06T01:33:12.536Z,-4.92
2023-03-06T01:35:42.134Z,-4.94
2023-03-06T01:38:12.047Z,-4.97
2023-03-06T01:40:42.150Z,-4.97
2023-03-06T01:43:25.719Z,-4.97
2023-03-06T01:46:28.395Z,-4.97
2023-03-06T01:49:05.979Z,-4.97
2023-03-06T01:51:43.217Z,-4.98
2023-03-06T01:54:20.534Z,-4.98
2023-03-06T01:56:56.810Z,-4.98
2023-03-06T01:59:27.984Z,-4.98
2023-03-06T02:02:01.716Z,-4.98
2023-03-06T02:04:32.016Z,-5.00
2023-03-06T02:07:04.316Z,-5.02
2023-03-06T02:09:37.953Z,-5.02
2023-03-06T02:12:11.468Z,-5.02
2023-03-06T02:14:46.469Z,-5.05
2023-03-06T02:17:18.603Z,-5.05
2023-03-06T02:20:00.121Z,-5.06
2023-03-06T02:22:37.161Z,-5.07
2023-03-06T02:25:21.451Z,-5.07
2023-03-06T02:27:51.116Z,-5.08
2023-03-06T02:30:21.557Z,-5.10
2023-03-06T02:32:52.416Z,-5.11
2023-03-06T02:35:24.636Z,-5.13
2023-03-06T02:37:59.105Z,-5.14
2023-03-06T02:40:28.746Z,-5.16
2023-03-06T02:42:59.368Z,-5.17
2023-03-06T02:45:35.696Z,-5.18
2023-03-06T02:48:05.691Z,-5.20
2023-03-06T02:50:34.906Z,-5.21
2023-03-06T02:53:04.402Z,-5.24
2023-03-06T02:55:35.626Z,-5.23
2023-03-06T02:58:06.145Z,-5.24
2023-03-06T03:00:35.840Z,-5.26
2023-03-06T03:03:06.414Z,-5.27
2023-03-06T03:05:38.932Z,-5.28
2023-03-06T03:08:14.542Z,-5.29
2023-03-06T03:10:44.463Z,-5.31
2023-03-06T03:13:15.699Z,-5.32
2023-03-06T03:15:45.246Z,-5.34
2023-03-06T03:18:15.484Z,-5.36
2023-03-06T03:20:44.484Z,-5.38
2023-03-06T03:23:14.127Z,-5.39
2023-03-06T03:25:43.450Z,-5.40
2023-03-06T03:28:12.432Z,-5.41
2023-03-06T03:30:42.786Z,-5.43
2023-03-06T03:33:14.376Z,-5.45
2023-03-06T03:35:46.596Z,-5.47
2023-03-06T03:38:15.576Z,-5.48
2023-03-06T03:40:44.989Z,-5.50
2023-03-06T03:43:14.129Z,-5.50
2023-03-06T03:45:44.436Z,-5.51
2023-03-06T03:48:18.097Z,-5.52
2023-03-06T03:50:47.260Z,-5.57
2023-03-06T03:53:16.816Z,-5.60
2023-03-06T03:55:47.961Z,-5.63
2023-03-06T03:58:18.485Z,-5.64
2023-03-06T04:00:51.000Z,-5.67
2023-03-06T04:03:20.465Z,-5.70
2023-03-06T04:05:49.488Z,-5.72
2023-03-06T04:08:21.800Z,-5.75
2023-03-06T04:10:51.606Z,-5.79
2023-03-06T04:13:23.730Z,-5.81
2023-03-06T04:15:59.203Z,-5.84
2023-03-06T04:18:31.170Z,-5.89
2023-03-06T04:21:07.408Z,-5.92
2023-03-06T04:23:36.525Z,-5.95
2023-03-06T04:26:09.612Z,-5.99
2023-03-06T04:28:38.653Z,-6.02
2023-03-06T04:31:08.113Z,-6.06
2023-03-06T04:33:41.055Z,-6.07
2023-03-06T04:36:24.739Z,-6.10
2023-03-06T04:38:57.691Z,-6.13
2023-03-06T04:41:26.925Z,-6.16
2023-03-06T04:43:59.003Z,-6.19
2023-03-06T04:46:52.427Z,-6.24
2023-03-06T04:49:21.857Z,-6.31
2023-03-06T04:51:50.967Z,-6.34
2023-03-06T04:54:19.831Z,-6.39
2023-03-06T04:56:52.578Z,-6.40
2023-03-06T04:59:24.020Z,-6.45
2023-03-06T05:01:54.096Z,-6.49
2023-03-06T05:04:24.778Z,-6.56
2023-03-06T05:07:02.043Z,-6.58
2023-03-06T05:09:31.122Z,-6.61
2023-03-06T05:12:02.654Z,-6.64
2023-03-06T05:14:33.717Z,-6.66
2023-03-06T05:17:05.161Z,-6.69
2023-03-06T05:19:34.189Z,-6.70
2023-03-06T05:22:05.602Z,-6.71
2023-03-06T05:24:34.569Z,-6.73
2023-03-06T05:27:10.007Z,-6.75
2023-03-06T05:29:39.018Z,-6.76
2023-03-06T05:32:09.018Z,-6.75
2023-03-06T05:34:40.107Z,-6.74
2023-03-06T05:37:09.351Z,-6.77
2023-03-06T05:39:38.642Z,-6.75
2023-03-06T05:42:10.917Z,-6.75
2023-03-06T05:44:41.274Z,-6.73
2023-03-06T05:47:12.896Z,-6.71
2023-03-06T05:49:42.122Z,-6.69
2023-03-06T05:52:13.085Z,-6.67
2023-03-06T05:54:42.539Z,-6.64
2023-03-06T05:57:11.957Z,-6.60
2023-03-06T05:59:40.829Z,-6.58
2023-03-06T06:02:11.002Z,-6.53
2023-03-06T06:04:39.910Z,-6.49
2023-03-06T06:07:12.534Z,-6.46
2023-03-06T06:09:42.957Z,-6.42
2023-03-06T06:12:12.979Z,-6.38
2023-03-06T06:14:43.225Z,-6.32
2023-03-06T06:17:12.437Z,-6.26
2023-03-06T06:19:41.371Z,-6.19
2023-03-06T06:22:11.146Z,-6.13
2023-03-06T06:24:40.108Z,-6.05
2023-03-06T06:27:10.036Z,-5.96
2023-03-06T06:29:39.034Z,-5.88
2023-03-06T06:32:08.569Z,-5.78
2023-03-06T06:34:40.185Z,-5.68
2023-03-06T06:37:11.977Z,-5.57
2023-03-06T06:39:42.033Z,-5.47
2023-03-06T06:42:29.443Z,-5.35
2023-03-06T06:45:01.330Z,-5.22
2023-03-06T06:47:30.353Z,-5.13
2023-03-06T06:49:59.926Z,-5.02
2023-03-06T06:52:28.806Z,-4.88
2023-03-06T06:55:00.242Z,-4.72
2023-03-06T06:57:29.634Z,-4.52
2023-03-06T06:59:59.774Z,-4.26
2023-03-06T07:02:28.798Z,-3.98
2023-03-06T07:05:05.941Z,-3.72
2023-03-06T07:07:36.696Z,-3.46
2023-03-06T07:10:08.694Z,-3.20
2023-03-06T07:12:38.280Z,-2.87
2023-03-06T07:15:13.508Z,-2.36
2023-03-06T07:17:43.347Z,-1.90
2023-03-06T07:20:15.331Z,-1.36
2023-03-06T07:22:51.256Z,-0.82
2023-03-06T07:25:22.607Z,-0.60
2023-03-06T07:27:54.645Z,-0.56
2023-03-06T07:30:25.399Z,-0.65
2023-03-06T07:32:57.150Z,-0.71
2023-03-06T07:35:27.941Z,0.03
2023-03-06T07:37:58.724Z,2.30
2023-03-06T07:40:28.134Z,4.37
2023-03-06T07:43:13.038Z,5.98
2023-03-06T07:45:58.521Z,6.95
2023-03-06T07:48:29.269Z,7.14
2023-03-06T07:51:01.237Z,7.54
2023-03-06T07:53:30.545Z,7.70
2023-03-06T07:55:59.546Z,7.43
2023-03-06T07:58:28.325Z,7.96
2023-03-06T08:00:57.884Z,9.07
2023-03-06T08:03:27.096Z,10.03
2023-03-06T08:06:06.373Z,11.10
2023-03-06T08:08:35.654Z,11.18
2023-03-06T08:11:09.062Z,10.46
2023-03-06T08:13:38.259Z,8.94
2023-03-06T08:16:09.170Z,7.78
2023-03-06T08:18:39.426Z,7.11
2023-03-06T08:21:11.201Z,6.43
2023-03-06T08:23:41.169Z,6.00
2023-03-06T08:26:14.228Z,5.79
2023-03-06T08:28:43.012Z,5.80
2023-03-06T08:31:21.024Z,5.76
2023-03-06T08:33:50.329Z,5.34
2023-03-06T08:36:20.223Z,5.00
2023-03-06T08:38:49.128Z,4.76
2023-03-06T08:41:20.229Z,4.56
2023-03-06T08:43:49.585Z,4.48
2023-03-06T08:46:21.879Z,4.27
2023-03-06T08:48:51.202Z,3.89
2023-03-06T08:51:21.622Z,3.64
2023-03-06T08:53:51.215Z,3.51
2023-03-06T08:56:23.601Z,3.48
2023-03-06T08:58:53.634Z,3.46
2023-03-06T09:01:24.816Z,3.41
2023-03-06T09:03:57.116Z,3.29
2023-03-06T09:06:27.805Z,3.18
2023-03-06T09:08:58.713Z,2.97
2023-03-06T09:11:28.445Z,2.85
2023-03-06T09:13:59.447Z,2.76
2023-03-06T09:16:31.482Z,2.62
2023-03-06T09:19:00.539Z,2.53
2023-03-06T09:21:29.851Z,2.42
2023-03-06T09:23:59.922Z,2.33
2023-03-06T09:26:43.258Z,2.25
2023-03-06T09:29:17.132Z,2.08
2023-03-06T09:31:57.951Z,2.02
2023-03-06T09:34:27.351Z,1.99
2023-03-06T09:36:57.801Z,2.00
2023-03-06T09:39:26.936Z,2.00
2023-03-06T09:41:58.841Z,1.92
2023-03-06T09:44:30.896Z,1.93
2023-03-06T09:47:25.084Z,1.99
2023-03-06T09:50:13.264Z,2.00
2023-03-06T09:52:57.474Z,2.10
2023-03-06T09:55:30.176Z,2.24
2023-03-06T09:58:02.587Z,2.37
2023-03-06T10:00:36.906Z,2.45
2023-03-06T10:03:15.309Z,2.47
2023-03-06T10:05:52.402Z,2.41
2023-03-06T10:08:31.326Z,2.32
2023-03-06T10:11:03.134Z,2.24
2023-03-06T10:13:39.260Z,2.14
2023-03-06T10:16:22.875Z,2.06
2023-03-06T10:18:57.300Z,1.91
2023-03-06T10:21:38.068Z,1.85
2023-03-06T10:24:19.353Z,1.81
2023-03-06T10:26:58.078Z,1.77
2023-03-06T10:29:56.391Z,1.81
2023-03-06T10:32:48.564Z,1.90
2023-03-06T10:35:23.836Z,1.91
2023-03-06T10:38:04.614Z,1.85
2023-03-06T10:40:44.334Z,1.84
2023-03-06T10:43:13.245Z,1.85
2023-03-06T10:45:53.938Z,1.82
2023-03-06T10:48:25.267Z,1.78
2023-03-06T10:51:18.649Z,1.67
2023-03-06T10:53:54.531Z,1.57
2023-03-06T10:56:29.511Z,1.47
2023-03-06T10:59:11.970Z,1.36
2023-03-06T11:01:50.297Z,1.29
2023-03-06T11:04:26.128Z,1.32
2023-03-06T11:07:14.523Z,1.32
2023-03-06T11:09:47.227Z,1.31
2023-03-06T11:12:23.653Z,1.29
2023-03-06T11:15:17.204Z,1.20
2023-03-06T11:17:53.477Z,1.10
2023-03-06T11:20:27.146Z,1.07
2023-03-06T11:23:03.191Z,1.06
2023-03-06T11:25:36.901Z,1.02
2023-03-06T11:28:13.867Z,1.00
2023-03-06T11:30:47.311Z,1.02
2023-03-06T11:33:22.527Z,1.04
2023-03-06T11:35:57.841Z,1.04
2023-03-06T11:38:36.153Z,1.10
2023-03-06T11:41:13.806Z,1.08
2023-03-06T11:43:52.844Z,1.04
2023-03-06T11:46:26.471Z,1.03
2023-03-06T11:49:06.214Z,1.03
2023-03-06T11:51:42.714Z,0.99
2023-03-06T11:54:13.786Z,0.98
2023-03-06T11:56:52.540Z,0.94
2023-03-06T12:00:05.606Z,0.94
2023-03-06T12:02:57.576Z,0.94
2023-03-06T12:05:36.847Z,0.84
2023-03-06T12:08:23.252Z,0.79
2023-03-06T12:10:57.993Z,0.67
2023-03-06T12:13:58.633Z,0.57
2023-03-06T12:16:43.735Z,0.52
2023-03-06T12:19:30.314Z,0.48
2023-03-06T12:22:21.377Z,0.39
2023-03-06T12:25:07.318Z,0.33
2023-03-06T12:27:45.231Z,0.27
2023-03-06T12:30:36.335Z,0.22
2023-03-06T12:33:16.884Z,0.19
2023-03-06T12:35:57.991Z,0.12
2023-03-06T12:38:51.599Z,0.06
2023-03-06T12:41:31.343Z,0.03
2023-03-06T12:44:26.031Z,0.03
2023-03-06T12:47:02.160Z,0.04
2023-03-06T12:49:34.031Z,0.00
2023-03-06T12:52:07.114Z,-0.03
2023-03-06T12:54:40.438Z,-0.05
2023-03-06T12:57:14.595Z,-0.06
2023-03-06T12:59:47.440Z,-0.08
2023-03-06T13:02:45.052Z,-0.11
2023-03-06T13:05:45.894Z,-0.16
2023-03-06T13:08:34.843Z,-0.18
2023-03-06T13:11:23.136Z,-0.18
2023-03-06T13:13:52.304Z,-0.19
2023-03-06T13:16:30.400Z,-0.20
2023-03-06T13:19:18.377Z,-0.20
2023-03-06T13:22:01.320Z,-0.18
2023-03-06T13:24:33.044Z,-0.18
2023-03-06T13:27:05.677Z,-0.21
2023-03-06T13:30:21.240Z,-0.24
2023-03-06T13:32:52.877Z,-0.31
2023-03-06T13:35:52.019Z,-0.35
2023-03-06T13:38:54.358Z,-0.37
2023-03-06T13:41:58.114Z,-0.38
2023-03-06T13:44:50.489Z,-0.38
2023-03-06T13:48:10.636Z,-0.37
2023-03-06T13:50:36.495Z,-0.39
2023-03-06T13:53:47.441Z,-0.37
2023-03-06T13:56:41.129Z,-0.33
2023-03-06T13:59:25.325Z,-0.30
2023-03-06T14:02:09.890Z,-0.26
2023-03-06T14:04:53.262Z,-0.21
2023-03-06T14:07:26.200Z,-0.20
2023-03-06T14:10:11.035Z,-0.19
2023-03-06T14:13:01.973Z,-0.18
2023-03-06T14:15:43.943Z,-0.14
2023-03-06T14:18:20.364Z,-0.13
2023-03-06T14:20:55.171Z,-0.10
2023-03-06T14:23:28.204Z,-0.06
2023-03-06T14:26:03.758Z,-0.01
2023-03-06T14:28:35.926Z,0.06
2023-03-06T14:31:06.642Z,0.10
2023-03-06T14:33:42.970Z,0.15
2023-03-06T14:36:16.990Z,0.18
2023-03-06T14:38:48.646Z,0.19
2023-03-06T14:41:25.975Z,0.19
2023-03-06T14:44:17.201Z,0.19
2023-03-06T14:46:49.784Z,0.20
2023-03-06T14:49:20.462Z,0.18
2023-03-06T14:51:51.537Z,0.21
2023-03-06T14:54:24.593Z,0.20
2023-03-06T14:56:57.710Z,0.19
2023-03-06T14:59:29.411Z,0.17
2023-03-06T15:02:02.703Z,0.17
2023-03-06T15:04:38.876Z,0.17
2023-03-06T15:07:12.995Z,0.20
2023-03-06T15:09:54.530Z,0.22
2023-03-06T15:12:38.086Z,0.23
2023-03-06T15:15:29.739Z,0.23
2023-03-06T15:18:00.310Z,0.22
2023-03-06T15:20:45.354Z,0.26
2023-03-06T15:23:21.119Z,0.27
2023-03-06T15:25:57.421Z,0.27
2023-03-06T15:28:33.767Z,0.28
2023-03-06T15:31:21.396Z,0.29
2023-03-06T15:34:17.953Z,0.31
2023-03-06T15:36:48.439Z,0.31
2023-03-06T15:39:40.882Z,0.28
2023-03-06T15:42:19.830Z,0.26
2023-03-06T15:44:52.836Z,0.23
2023-03-06T15:47:23.208Z,0.23
2023-03-06T15:49:52.718Z,0.21
2023-03-06T15:52:22.288Z,0.21
2023-03-06T15:54:54.344Z,0.20
2023-03-06T15:57:26.053Z,0.19
2023-03-06T15:59:56.792Z,0.17
2023-03-06T16:02:25.968Z,0.15
2023-03-06T16:04:54.884Z,0.13
2023-03-06T16:07:28.030Z,0.11
2023-03-06T16:09:57.803Z,0.07
2023-03-06T16:12:29.640Z,0.05
2023-03-06T16:15:02.175Z,0.02
2023-03-06T16:17:31.196Z,-0.02
2023-03-06T16:20:00.028Z,-0.03
2023-03-06T16:22:28.929Z,-0.05
2023-03-06T16:25:00.269Z,-0.07
2023-03-06T16:27:29.492Z,-0.08
2023-03-06T16:29:58.889Z,-0.11
2023-03-06T16:32:28.872Z,-0.12
2023-03-06T16:35:00.014Z,-0.14
2023-03-06T16:37:29.062Z,-0.15
2023-03-06T16:40:00.519Z,-0.15
2023-03-06T16:42:29.934Z,-0.16
2023-03-06T16:45:00.649Z,-0.16
2023-03-06T16:47:31.471Z,-0.16
2023-03-06T16:50:01.658Z,-0.17
2023-03-06T16:52:31.276Z,-0.16
2023-03-06T16:55:00.233Z,-0.18
2023-03-06T16:57:35.022Z,-0.16
2023-03-06T17:00:06.548Z,-0.18
2023-03-06T17:02:36.022Z,-0.18
2023-03-06T17:05:06.749Z,-0.17
2023-03-06T17:07:37.799Z,-0.17
2023-03-06T17:10:09.924Z,-0.17
2023-03-06T17:12:39.155Z,-0.16
2023-03-06T17:15:10.855Z,-0.16
2023-03-06T17:17:41.455Z,-0.15
2023-03-06T17:20:16.350Z,-0.15
2023-03-06T17:22:45.477Z,-0.16
2023-03-06T17:25:23.862Z,-0.16
2023-03-06T17:27:52.968Z,-0.17
2023-03-06T17:30:22.166Z,-0.16
2023-03-06T17:32:53.090Z,-0.17
2023-03-06T17:35:21.993Z,-0.17
2023-03-06T17:37:54.427Z,-0.19
2023-03-06T17:40:23.316Z,-0.19
2023-03-06T17:42:53.602Z,-0.18
2023-03-06T17:45:22.374Z,-0.20
2023-03-06T17:47:57.253Z,-0.20
2023-03-06T17:50:26.312Z,-0.20
2023-03-06T17:52:58.499Z,-0.20
2023-03-06T17:55:28.468Z,-0.20
2023-03-06T17:57:58.493Z,-0.21
2023-03-06T18:00:27.701Z,-0.20
2023-03-06T18:02:57.614Z,-0.21
2023-03-06T18:05:26.930Z,-0.22
2023-03-06T18:07:59.013Z,-0.22
2023-03-06T18:10:29.561Z,-0.22
2023-03-06T18:12:59.614Z,-0.22
2023-03-06T18:15:28.839Z,-0.22
2023-03-06T18:18:00.902Z,-0.23
2023-03-06T18:20:29.977Z,-0.23
2023-03-06T18:23:03.069Z,-0.23
2023-03-06T18:25:32.097Z,-0.23
2023-03-06T18:28:01.573Z,-0.22
2023-03-06T18:30:30.681Z,-0.22
2023-03-06T18:33:00.324Z,-0.22
2023-03-06T18:35:29.665Z,-0.22
2023-03-06T18:38:01.518Z,-0.23
2023-03-06T18:40:31.926Z,-0.24
2023-03-06T18:43:08.627Z,-0.24
2023-03-06T18:45:40.693Z,-0.25
2023-03-06T18:48:11.472Z,-0.24
2023-03-06T18:50:46.247Z,-0.25
2023-03-06T18:53:15.289Z,-0.24
2023-03-06T18:55:48.579Z,-0.23
2023-03-06T18:58:19.794Z,-0.23
2023-03-06T19:00:49.527Z,-0.24
2023-03-06T19:03:18.928Z,-0.24
2023-03-06T19:05:49.397Z,-0.26
2023-03-06T19:08:19.219Z,-0.28
2023-03-06T19:10:49.641Z,-0.29
2023-03-06T19:13:18.906Z,-0.29
2023-03-06T19:15:49.055Z,-0.29
2023-03-06T19:18:18.779Z,-0.33
2023-03-06T19:20:47.710Z,-0.33
2023-03-06T19:23:17.007Z,-0.35
2023-03-06T19:25:57.074Z,-0.35
2023-03-06T19:28:27.775Z,-0.37
2023-03-06T19:31:08.622Z,-0.38
2023-03-06T19:33:45.705Z,-0.40
2023-03-06T19:36:17.938Z,-0.42
2023-03-06T19:39:01.937Z,-0.42
2023-03-06T19:41:32.527Z,-0.43
2023-03-06T19:44:06.058Z,-0.41
2023-03-06T19:46:36.183Z,-0.43
2023-03-06T19:49:12.217Z,-0.44
2023-03-06T19:51:44.761Z,-0.45
2023-03-06T19:54:14.545Z,-0.48
2023-03-06T19:56:47.894Z,-0.48
2023-03-06T19:59:19.139Z,-0.48
2023-03-06T20:01:53.512Z,-0.50
2023-03-06T20:04:25.351Z,-0.50
2023-03-06T20:07:04.805Z,-0.50
2023-03-06T20:09:35.224Z,-0.51
2023-03-06T20:12:08.941Z,-0.53
2023-03-06T20:14:54.795Z,-0.55
2023-03-06T20:17:27.324Z,-0.57
2023-03-06T20:20:02.869Z,-0.59
2023-03-06T20:22:35.311Z,-0.61
2023-03-06T20:25:10.482Z,-0.64
2023-03-06T20:27:44.793Z,-0.65
2023-03-06T20:30:18.845Z,-0.65
2023-03-06T20:32:56.034Z,-0.66
2023-03-06T20:35:26.831Z,-0.66
2023-03-06T20:38:00.985Z,-0.66
2023-03-06T20:40:32.495Z,-0.67
2023-03-06T20:43:03.570Z,-0.66
2023-03-06T20:45:35.479Z,-0.66
2023-03-06T20:48:08.839Z,-0.68
2023-03-06T20:50:41.250Z,-0.69
2023-03-06T20:53:11.098Z,-0.69
2023-03-06T20:55:40.036Z,-0.70
2023-03-06T20:58:09.177Z,-0.70
2023-03-06T21:00:38.110Z,-0.71
2023-03-06T21:03:09.769Z,-0.72
2023-03-06T21:05:38.624Z,-0.74
2023-03-06T21:08:08.019Z,-0.74
2023-03-06T21:10:38.708Z,-0.75
2023-03-06T21:13:07.702Z,-0.76
2023-03-06T21:15:38.725Z,-0.77
2023-03-06T21:18:09.435Z,-0.76
2023-03-06T21:20:39.679Z,-0.79
2023-03-06T21:23:08.978Z,-0.79
2023-03-06T21:25:46.037Z,-0.80
2023-03-06T21:28:23.148Z,-0.80
2023-03-06T21:30:55.388Z,-0.81
2023-03-06T21:33:26.185Z,-0.84
2023-03-06T21:35:55.080Z,-0.85
2023-03-06T21:38:25.418Z,-0.86
2023-03-06T21:40:55.770Z,-0.85
2023-03-06T21:43:25.432Z,-0.86
2023-03-06T21:45:58.698Z,-0.86
2023-03-06T21:48:27.694Z,-0.87
2023-03-06T21:51:07.162Z,-0.88
2023-03-06T21:53:36.971Z,-0.90
2023-03-06T21:56:08.110Z,-0.90
2023-03-06T21:58:37.621Z,-0.91
2023-03-06T22:01:10.884Z,-0.91
2023-03-06T22:03:40.054Z,-0.92
2023-03-06T22:06:11.621Z,-0.92
2023-03-06T22:08:42.616Z,-0.92
2023-03-06T22:11:13.607Z,-0.94
2023-03-06T22:13:43.354Z,-0.93
2023-03-06T22:16:12.603Z,-0.96
2023-03-06T22:18:45.370Z,-0.95
2023-03-06T22:21:16.946Z,-0.96
2023-03-06T22:23:57.842Z,-0.95
2023-03-06T22:26:28.069Z,-0.95
2023-03-06T22:28:58.598Z,-0.95
2023-03-06T22:31:28.530Z,-0.95
2023-03-06T22:34:00.213Z,-0.97
2023-03-06T22:36:30.521Z,-0.97
2023-03-06T22:39:03.646Z,-0.97
2023-03-06T22:41:32.648Z,-0.97
2023-03-06T22:44:02.505Z,-0.99
2023-03-06T22:46:33.144Z,-1.00
2023-03-06T22:49:04.535Z,-0.99
2023-03-06T22:51:33.371Z,-0.99
2023-03-06T22:54:02.378Z,-0.97
2023-03-06T22:56:31.641Z,-0.97
2023-03-06T22:59:00.743Z,-0.97
2023-03-06T23:01:31.818Z,-0.99
2023-03-06T23:04:04.312Z,-1.01
2023-03-06T23:06:35.173Z,-1.01
2023-03-06T23:09:06.700Z,-1.02
2023-03-06T23:11:54.804Z,-1.01
2023-03-06T23:14:43.157Z,-1.03
2023-03-06T23:17:31.048Z,-1.05
2023-03-06T23:20:23.295Z,-1.12
2023-03-06T23:23:11.694Z,-1.20
2023-03-06T23:25:44.567Z,-1.28
2023-03-06T23:28:13.624Z,-1.37
2023-03-06T23:30:43.270Z,-1.44
2023-03-06T23:33:12.331Z,-1.50
2023-03-06T23:35:44.041Z,-1.54
2023-03-06T23:38:13.156Z,-1.56
2023-03-06T23:40:42.267Z,-1.56
2023-03-06T23:43:11.157Z,-1.58
2023-03-06T23:45:40.332Z,-1.63
2023-03-06T23:48:09.222Z,-1.65
2023-03-06T23:50:42.024Z,-1.67
2023-03-06T23:53:14.433Z,-1.72
2023-03-06T23:55:43.942Z,-1.76
2023-03-06T23:58:15.203Z,-1.78
